sensor_id;sensor_type;location;lat;lon;timestamp;P1;durP1;ratioP1;P2;durP2;ratioP2
16101;SDS011;56411;52.964;10.540;2023-06-01T00:02:01;17.03;;;6.60;;
16101;SDS011;56411;52.964;10.540;2023-06-01T00:04:28;15.77;;;6.57;;
16101;SDS011;56411;52.964;10.540;2023-06-01T00:06:55;16.87;;;6.87;;
16101;SDS011;56411;52.964;10.540;2023-06-01T00:09:25;15.80;;;5.83;;
16101;SDS011;56411;52.964;10.540;2023-06-01T00:11:53;15.57;;;5.83;;
16101;SDS011;56411;52.964;10.540;2023-06-01T00:14:20;15.77;;;6.20;;
16101;SDS011;56411;52.964;10.540;2023-06-01T00:16:47;16.40;;;6.17;;
16101;SDS011;56411;52.964;10.540;2023-06-01T00:19:15;14.10;;;5.63;;
16101;SDS011;56411;52.964;10.540;2023-06-01T00:21:42;19.90;;;6.30;;
16101;SDS011;56411;52.964;10.540;2023-06-01T00:24:09;18.07;;;6.77;;
16101;SDS011;56411;52.964;10.540;2023-06-01T00:26:36;17.00;;;5.97;;
16101;SDS011;56411;52.964;10.540;2023-06-01T00:29:05;16.50;;;7.03;;
16101;SDS011;56411;52.964;10.540;2023-06-01T00:31:31;16.93;;;6.53;;
16101;SDS011;56411;52.964;10.540;2023-06-01T00:33:58;15.43;;;6.43;;
16101;SDS011;56411;52.964;10.540;2023-06-01T00:36:25;17.53;;;6.60;;
16101;SDS011;56411;52.964;10.540;2023-06-01T00:38:52;18.70;;;7.00;;
16101;SDS011;56411;52.964;10.540;2023-06-01T00:41:26;16.27;;;6.50;;
16101;SDS011;56411;52.964;10.540;2023-06-01T00:43:53;17.43;;;6.30;;
16101;SDS011;56411;52.964;10.540;2023-06-01T00:46:22;15.10;;;6.73;;
16101;SDS011;56411;52.964;10.540;2023-06-01T00:48:49;17.73;;;7.10;;
16101;SDS011;56411;52.964;10.540;2023-06-01T00:51:17;17.30;;;6.93;;
16101;SDS011;56411;52.964;10.540;2023-06-01T00:53:44;17.33;;;6.80;;
16101;SDS011;56411;52.964;10.540;2023-06-01T00:56:12;16.90;;;6.67;;
16101;SDS011;56411;52.964;10.540;2023-06-01T00:58:39;13.90;;;6.07;;
16101;SDS011;56411;52.964;10.540;2023-06-01T01:01:06;17.27;;;6.57;;
16101;SDS011;56411;52.964;10.540;2023-06-01T01:03:45;17.63;;;6.93;;
16101;SDS011;56411;52.964;10.540;2023-06-01T01:06:16;16.37;;;6.50;;
16101;SDS011;56411;52.964;10.540;2023-06-01T01:08:52;15.93;;;6.43;;
16101;SDS011;56411;52.964;10.540;2023-06-01T01:11:32;15.50;;;6.17;;
16101;SDS011;56411;52.964;10.540;2023-06-01T01:14:04;17.03;;;6.50;;
16101;SDS011;56411;52.964;10.540;2023-06-01T01:16:38;16.97;;;6.10;;
16101;SDS011;56411;52.964;10.540;2023-06-01T01:19:16;16.83;;;7.13;;
16101;SDS011;56411;52.964;10.540;2023-06-01T01:22:06;16.17;;;6.90;;
16101;SDS011;56411;52.964;10.540;2023-06-01T01:24:43;17.47;;;6.77;;
16101;SDS011;56411;52.964;10.540;2023-06-01T01:27:23;16.90;;;6.43;;
16101;SDS011;56411;52.964;10.540;2023-06-01T01:29:58;15.80;;;7.30;;
16101;SDS011;56411;52.964;10.540;2023-06-01T01:32:30;14.20;;;6.70;;
16101;SDS011;56411;52.964;10.540;2023-06-01T01:34:58;17.17;;;7.03;;
16101;SDS011;56411;52.964;10.540;2023-06-01T01:37:26;15.17;;;6.83;;
16101;SDS011;56411;52.964;10.540;2023-06-01T01:39:53;15.00;;;6.23;;
16101;SDS011;56411;52.964;10.540;2023-06-01T01:42:20;16.73;;;6.57;;
16101;SDS011;56411;52.964;10.540;2023-06-01T01:44:48;18.53;;;6.70;;
16101;SDS011;56411;52.964;10.540;2023-06-01T01:47:18;19.93;;;6.60;;
16101;SDS011;56411;52.964;10.540;2023-06-01T01:49:52;15.60;;;6.53;;
16101;SDS011;56411;52.964;10.540;2023-06-01T01:52:26;15.97;;;6.00;;
16101;SDS011;56411;52.964;10.540;2023-06-01T01:54:58;16.00;;;6.67;;
16101;SDS011;56411;52.964;10.540;2023-06-01T01:57:25;14.83;;;6.00;;
16101;SDS011;56411;52.964;10.540;2023-06-01T01:59:55;14.97;;;5.97;;
16101;SDS011;56411;52.964;10.540;2023-06-01T02:02:24;15.17;;;5.73;;
16101;SDS011;56411;52.964;10.540;2023-06-01T02:04:51;17.47;;;5.83;;
16101;SDS011;56411;52.964;10.540;2023-06-01T02:07:18;14.80;;;5.70;;
16101;SDS011;56411;52.964;10.540;2023-06-01T02:09:48;13.30;;;5.90;;
16101;SDS011;56411;52.964;10.540;2023-06-01T02:12:15;12.80;;;5.50;;
16101;SDS011;56411;52.964;10.540;2023-06-01T02:14:42;13.83;;;5.57;;
16101;SDS011;56411;52.964;10.540;2023-06-01T02:17:09;13.93;;;5.93;;
16101;SDS011;56411;52.964;10.540;2023-06-01T02:19:38;15.73;;;5.90;;
16101;SDS011;56411;52.964;10.540;2023-06-01T02:22:05;16.47;;;5.87;;
16101;SDS011;56411;52.964;10.540;2023-06-01T02:24:32;15.23;;;5.17;;
16101;SDS011;56411;52.964;10.540;2023-06-01T02:26:59;17.57;;;6.83;;
16101;SDS011;56411;52.964;10.540;2023-06-01T02:29:27;14.33;;;5.47;;
16101;SDS011;56411;52.964;10.540;2023-06-01T02:31:54;15.90;;;5.60;;
16101;SDS011;56411;52.964;10.540;2023-06-01T02:34:21;16.33;;;5.90;;
16101;SDS011;56411;52.964;10.540;2023-06-01T02:36:49;16.30;;;5.80;;
16101;SDS011;56411;52.964;10.540;2023-06-01T02:39:20;13.13;;;6.27;;
16101;SDS011;56411;52.964;10.540;2023-06-01T02:41:47;15.90;;;5.90;;
16101;SDS011;56411;52.964;10.540;2023-06-01T02:44:14;11.37;;;5.20;;
16101;SDS011;56411;52.964;10.540;2023-06-01T02:46:41;15.10;;;5.40;;
16101;SDS011;56411;52.964;10.540;2023-06-01T02:49:08;16.17;;;5.27;;
16101;SDS011;56411;52.964;10.540;2023-06-01T02:51:35;14.80;;;6.27;;
16101;SDS011;56411;52.964;10.540;2023-06-01T02:54:03;13.63;;;5.63;;
16101;SDS011;56411;52.964;10.540;2023-06-01T02:56:30;16.43;;;6.10;;
16101;SDS011;56411;52.964;10.540;2023-06-01T02:58:57;14.47;;;5.77;;
16101;SDS011;56411;52.964;10.540;2023-06-01T03:01:24;15.57;;;5.23;;
16101;SDS011;56411;52.964;10.540;2023-06-01T03:03:52;14.67;;;5.97;;
16101;SDS011;56411;52.964;10.540;2023-06-01T03:06:21;14.83;;;6.10;;
16101;SDS011;56411;52.964;10.540;2023-06-01T03:08:48;14.60;;;5.80;;
16101;SDS011;56411;52.964;10.540;2023-06-01T03:11:16;12.00;;;5.40;;
16101;SDS011;56411;52.964;10.540;2023-06-01T03:13:43;14.93;;;5.60;;
16101;SDS011;56411;52.964;10.540;2023-06-01T03:16:10;12.73;;;5.13;;
16101;SDS011;56411;52.964;10.540;2023-06-01T03:18:37;14.23;;;5.37;;
16101;SDS011;56411;52.964;10.540;2023-06-01T03:21:04;13.57;;;5.50;;
16101;SDS011;56411;52.964;10.540;2023-06-01T03:23:31;16.93;;;6.27;;
16101;SDS011;56411;52.964;10.540;2023-06-01T03:25:58;13.33;;;5.57;;
16101;SDS011;56411;52.964;10.540;2023-06-01T03:28:30;17.60;;;6.37;;
16101;SDS011;56411;52.964;10.540;2023-06-01T03:30:56;12.90;;;5.90;;
16101;SDS011;56411;52.964;10.540;2023-06-01T03:33:23;15.93;;;6.13;;
16101;SDS011;56411;52.964;10.540;2023-06-01T03:35:50;15.97;;;5.43;;
16101;SDS011;56411;52.964;10.540;2023-06-01T03:38:17;14.87;;;5.70;;
16101;SDS011;56411;52.964;10.540;2023-06-01T03:40:44;18.43;;;5.60;;
16101;SDS011;56411;52.964;10.540;2023-06-01T03:43:11;14.33;;;5.20;;
16101;SDS011;56411;52.964;10.540;2023-06-01T03:45:40;13.47;;;4.97;;
16101;SDS011;56411;52.964;10.540;2023-06-01T03:48:07;16.43;;;5.70;;
16101;SDS011;56411;52.964;10.540;2023-06-01T03:50:34;14.67;;;5.87;;
16101;SDS011;56411;52.964;10.540;2023-06-01T03:53:01;18.67;;;5.67;;
16101;SDS011;56411;52.964;10.540;2023-06-01T03:55:29;17.57;;;5.70;;
16101;SDS011;56411;52.964;10.540;2023-06-01T03:57:57;13.40;;;4.80;;
16101;SDS011;56411;52.964;10.540;2023-06-01T04:00:25;16.73;;;5.63;;
16101;SDS011;56411;52.964;10.540;2023-06-01T04:02:53;14.77;;;5.10;;
16101;SDS011;56411;52.964;10.540;2023-06-01T04:05:22;13.97;;;5.47;;
16101;SDS011;56411;52.964;10.540;2023-06-01T04:07:51;14.47;;;5.53;;
16101;SDS011;56411;52.964;10.540;2023-06-01T04:10:24;14.97;;;5.20;;
16101;SDS011;56411;52.964;10.540;2023-06-01T04:12:51;15.53;;;5.37;;
16101;SDS011;56411;52.964;10.540;2023-06-01T04:15:19;15.63;;;5.20;;
16101;SDS011;56411;52.964;10.540;2023-06-01T04:17:47;15.10;;;5.40;;
16101;SDS011;56411;52.964;10.540;2023-06-01T04:20:15;17.00;;;5.47;;
16101;SDS011;56411;52.964;10.540;2023-06-01T04:22:43;15.30;;;5.43;;
16101;SDS011;56411;52.964;10.540;2023-06-01T04:25:12;14.40;;;5.27;;
16101;SDS011;56411;52.964;10.540;2023-06-01T04:27:43;15.90;;;5.70;;
16101;SDS011;56411;52.964;10.540;2023-06-01T04:30:11;18.53;;;5.80;;
16101;SDS011;56411;52.964;10.540;2023-06-01T04:32:39;14.80;;;5.30;;
16101;SDS011;56411;52.964;10.540;2023-06-01T04:35:09;16.63;;;5.80;;
16101;SDS011;56411;52.964;10.540;2023-06-01T04:37:38;18.00;;;5.70;;
16101;SDS011;56411;52.964;10.540;2023-06-01T04:40:08;15.40;;;5.27;;
16101;SDS011;56411;52.964;10.540;2023-06-01T04:42:36;16.70;;;5.60;;
16101;SDS011;56411;52.964;10.540;2023-06-01T04:45:06;17.07;;;6.40;;
16101;SDS011;56411;52.964;10.540;2023-06-01T04:47:34;14.53;;;5.17;;
16101;SDS011;56411;52.964;10.540;2023-06-01T04:50:03;17.87;;;6.00;;
16101;SDS011;56411;52.964;10.540;2023-06-01T04:52:33;12.67;;;5.63;;
16101;SDS011;56411;52.964;10.540;2023-06-01T04:55:02;13.90;;;5.17;;
16101;SDS011;56411;52.964;10.540;2023-06-01T04:57:29;15.63;;;5.43;;
16101;SDS011;56411;52.964;10.540;2023-06-01T04:59:57;16.20;;;5.23;;
16101;SDS011;56411;52.964;10.540;2023-06-01T05:02:24;13.57;;;5.03;;
16101;SDS011;56411;52.964;10.540;2023-06-01T05:04:51;16.40;;;5.70;;
16101;SDS011;56411;52.964;10.540;2023-06-01T05:07:18;14.03;;;5.43;;
16101;SDS011;56411;52.964;10.540;2023-06-01T05:09:46;13.97;;;5.40;;
16101;SDS011;56411;52.964;10.540;2023-06-01T05:12:14;13.80;;;5.30;;
16101;SDS011;56411;52.964;10.540;2023-06-01T05:14:41;13.60;;;5.20;;
16101;SDS011;56411;52.964;10.540;2023-06-01T05:17:08;15.53;;;5.17;;
16101;SDS011;56411;52.964;10.540;2023-06-01T05:19:35;14.57;;;5.33;;
16101;SDS011;56411;52.964;10.540;2023-06-01T05:22:02;15.57;;;4.60;;
16101;SDS011;56411;52.964;10.540;2023-06-01T05:24:29;15.03;;;5.47;;
16101;SDS011;56411;52.964;10.540;2023-06-01T05:26:56;14.93;;;4.73;;
16101;SDS011;56411;52.964;10.540;2023-06-01T05:29:24;14.67;;;5.43;;
16101;SDS011;56411;52.964;10.540;2023-06-01T05:31:51;15.07;;;5.00;;
16101;SDS011;56411;52.964;10.540;2023-06-01T05:34:18;17.03;;;4.90;;
16101;SDS011;56411;52.964;10.540;2023-06-01T05:36:46;17.80;;;5.50;;
16101;SDS011;56411;52.964;10.540;2023-06-01T05:39:13;14.37;;;5.20;;
16101;SDS011;56411;52.964;10.540;2023-06-01T05:41:41;15.27;;;5.40;;
16101;SDS011;56411;52.964;10.540;2023-06-01T05:44:14;14.40;;;4.83;;
16101;SDS011;56411;52.964;10.540;2023-06-01T05:46:43;15.93;;;5.27;;
16101;SDS011;56411;52.964;10.540;2023-06-01T05:49:10;13.10;;;4.97;;
16101;SDS011;56411;52.964;10.540;2023-06-01T05:51:37;17.13;;;5.00;;
16101;SDS011;56411;52.964;10.540;2023-06-01T05:54:08;16.60;;;5.13;;
16101;SDS011;56411;52.964;10.540;2023-06-01T05:56:35;12.77;;;5.10;;
16101;SDS011;56411;52.964;10.540;2023-06-01T05:59:02;15.17;;;5.93;;
16101;SDS011;56411;52.964;10.540;2023-06-01T06:01:30;14.40;;;5.30;;
16101;SDS011;56411;52.964;10.540;2023-06-01T06:03:58;15.80;;;5.13;;
16101;SDS011;56411;52.964;10.540;2023-06-01T06:06:25;14.97;;;5.03;;
16101;SDS011;56411;52.964;10.540;2023-06-01T06:08:52;13.60;;;4.73;;
16101;SDS011;56411;52.964;10.540;2023-06-01T06:11:19;15.80;;;5.27;;
16101;SDS011;56411;52.964;10.540;2023-06-01T06:13:47;15.63;;;5.33;;
16101;SDS011;56411;52.964;10.540;2023-06-01T06:16:15;13.63;;;4.87;;
16101;SDS011;56411;52.964;10.540;2023-06-01T06:18:42;16.13;;;5.13;;
16101;SDS011;56411;52.964;10.540;2023-06-01T06:21:10;11.80;;;4.72;;
16101;SDS011;56411;52.964;10.540;2023-06-01T06:23:38;13.73;;;5.10;;
16101;SDS011;56411;52.964;10.540;2023-06-01T06:26:06;12.13;;;4.83;;
16101;SDS011;56411;52.964;10.540;2023-06-01T06:28:33;15.18;;;4.53;;
16101;SDS011;56411;52.964;10.540;2023-06-01T06:31:00;16.98;;;5.35;;
16101;SDS011;56411;52.964;10.540;2023-06-01T06:33:27;12.43;;;4.80;;
16101;SDS011;56411;52.964;10.540;2023-06-01T06:35:54;13.87;;;5.03;;
16101;SDS011;56411;52.964;10.540;2023-06-01T06:38:22;15.97;;;5.10;;
16101;SDS011;56411;52.964;10.540;2023-06-01T06:40:49;14.43;;;5.07;;
16101;SDS011;56411;52.964;10.540;2023-06-01T06:43:16;14.87;;;5.07;;
16101;SDS011;56411;52.964;10.540;2023-06-01T06:45:43;15.03;;;5.40;;
16101;SDS011;56411;52.964;10.540;2023-06-01T06:48:10;15.60;;;5.40;;
16101;SDS011;56411;52.964;10.540;2023-06-01T06:50:37;13.23;;;5.33;;
16101;SDS011;56411;52.964;10.540;2023-06-01T06:53:06;14.10;;;5.17;;
16101;SDS011;56411;52.964;10.540;2023-06-01T06:55:35;13.67;;;4.60;;
16101;SDS011;56411;52.964;10.540;2023-06-01T06:58:02;16.13;;;5.37;;
16101;SDS011;56411;52.964;10.540;2023-06-01T07:00:29;18.43;;;5.47;;
16101;SDS011;56411;52.964;10.540;2023-06-01T07:02:56;16.30;;;5.27;;
16101;SDS011;56411;52.964;10.540;2023-06-01T07:05:24;14.75;;;5.40;;
16101;SDS011;56411;52.964;10.540;2023-06-01T07:07:51;16.13;;;5.43;;
16101;SDS011;56411;52.964;10.540;2023-06-01T07:10:18;15.52;;;5.53;;
16101;SDS011;56411;52.964;10.540;2023-06-01T07:12:46;15.32;;;5.30;;
16101;SDS011;56411;52.964;10.540;2023-06-01T07:15:13;14.47;;;5.57;;
16101;SDS011;56411;52.964;10.540;2023-06-01T07:17:41;12.87;;;5.03;;
16101;SDS011;56411;52.964;10.540;2023-06-01T07:20:08;16.57;;;5.03;;
16101;SDS011;56411;52.964;10.540;2023-06-01T07:22:37;15.67;;;5.23;;
16101;SDS011;56411;52.964;10.540;2023-06-01T07:25:04;15.65;;;4.85;;
16101;SDS011;56411;52.964;10.540;2023-06-01T07:27:32;14.30;;;5.00;;
16101;SDS011;56411;52.964;10.540;2023-06-01T07:30:01;16.00;;;5.70;;
16101;SDS011;56411;52.964;10.540;2023-06-01T07:32:28;15.30;;;5.47;;
16101;SDS011;56411;52.964;10.540;2023-06-01T07:34:56;16.92;;;5.38;;
16101;SDS011;56411;52.964;10.540;2023-06-01T07:37:24;11.93;;;5.03;;
16101;SDS011;56411;52.964;10.540;2023-06-01T07:39:52;13.33;;;4.67;;
16101;SDS011;56411;52.964;10.540;2023-06-01T07:42:19;12.63;;;5.13;;
16101;SDS011;56411;52.964;10.540;2023-06-01T07:44:46;12.43;;;4.95;;
16101;SDS011;56411;52.964;10.540;2023-06-01T07:47:14;16.45;;;5.05;;
16101;SDS011;56411;52.964;10.540;2023-06-01T07:49:41;15.15;;;4.85;;
16101;SDS011;56411;52.964;10.540;2023-06-01T07:52:08;13.27;;;4.47;;
16101;SDS011;56411;52.964;10.540;2023-06-01T07:54:36;13.90;;;4.60;;
16101;SDS011;56411;52.964;10.540;2023-06-01T07:57:03;14.18;;;5.47;;
16101;SDS011;56411;52.964;10.540;2023-06-01T07:59:31;15.52;;;5.60;;
16101;SDS011;56411;52.964;10.540;2023-06-01T08:01:58;14.57;;;5.28;;
16101;SDS011;56411;52.964;10.540;2023-06-01T08:04:27;13.75;;;4.70;;
16101;SDS011;56411;52.964;10.540;2023-06-01T08:06:59;14.00;;;5.38;;
16101;SDS011;56411;52.964;10.540;2023-06-01T08:09:28;15.55;;;5.60;;
16101;SDS011;56411;52.964;10.540;2023-06-01T08:11:55;14.38;;;5.22;;
16101;SDS011;56411;52.964;10.540;2023-06-01T08:14:22;14.45;;;5.32;;
16101;SDS011;56411;52.964;10.540;2023-06-01T08:16:50;13.88;;;5.00;;
16101;SDS011;56411;52.964;10.540;2023-06-01T08:19:17;14.88;;;5.47;;
16101;SDS011;56411;52.964;10.540;2023-06-01T08:21:45;12.75;;;4.93;;
16101;SDS011;56411;52.964;10.540;2023-06-01T08:24:12;13.43;;;5.00;;
16101;SDS011;56411;52.964;10.540;2023-06-01T08:26:40;11.10;;;4.80;;
16101;SDS011;56411;52.964;10.540;2023-06-01T08:29:07;13.70;;;5.20;;
16101;SDS011;56411;52.964;10.540;2023-06-01T08:31:35;12.68;;;4.90;;
16101;SDS011;56411;52.964;10.540;2023-06-01T08:34:03;13.93;;;4.45;;
16101;SDS011;56411;52.964;10.540;2023-06-01T08:36:30;13.80;;;5.15;;
16101;SDS011;56411;52.964;10.540;2023-06-01T08:38:59;13.35;;;5.07;;
16101;SDS011;56411;52.964;10.540;2023-06-01T08:41:36;14.80;;;5.03;;
16101;SDS011;56411;52.964;10.540;2023-06-01T08:44:08;13.30;;;4.88;;
16101;SDS011;56411;52.964;10.540;2023-06-01T08:46:40;14.68;;;5.18;;
16101;SDS011;56411;52.964;10.540;2023-06-01T08:49:08;15.68;;;5.60;;
16101;SDS011;56411;52.964;10.540;2023-06-01T08:51:39;12.93;;;4.95;;
16101;SDS011;56411;52.964;10.540;2023-06-01T08:54:10;12.93;;;5.00;;
16101;SDS011;56411;52.964;10.540;2023-06-01T08:56:37;13.63;;;5.32;;
16101;SDS011;56411;52.964;10.540;2023-06-01T08:59:07;14.02;;;4.90;;
16101;SDS011;56411;52.964;10.540;2023-06-01T09:01:35;14.60;;;5.10;;
16101;SDS011;56411;52.964;10.540;2023-06-01T09:04:04;12.80;;;4.70;;
16101;SDS011;56411;52.964;10.540;2023-06-01T09:06:33;14.57;;;5.32;;
16101;SDS011;56411;52.964;10.540;2023-06-01T09:09:00;13.02;;;5.05;;
16101;SDS011;56411;52.964;10.540;2023-06-01T09:11:28;15.45;;;5.20;;
16101;SDS011;56411;52.964;10.540;2023-06-01T09:13:56;13.35;;;4.90;;
16101;SDS011;56411;52.964;10.540;2023-06-01T09:16:26;11.30;;;4.45;;
16101;SDS011;56411;52.964;10.540;2023-06-01T09:19:01;14.52;;;5.18;;
16101;SDS011;56411;52.964;10.540;2023-06-01T09:21:28;11.52;;;4.90;;
16101;SDS011;56411;52.964;10.540;2023-06-01T09:23:56;12.00;;;5.05;;
16101;SDS011;56411;52.964;10.540;2023-06-01T09:26:44;12.43;;;4.70;;
16101;SDS011;56411;52.964;10.540;2023-06-01T09:29:14;13.10;;;5.15;;
16101;SDS011;56411;52.964;10.540;2023-06-01T09:31:41;13.77;;;4.78;;
16101;SDS011;56411;52.964;10.540;2023-06-01T09:34:10;14.88;;;4.70;;
16101;SDS011;56411;52.964;10.540;2023-06-01T09:36:40;14.07;;;4.85;;
16101;SDS011;56411;52.964;10.540;2023-06-01T09:39:09;12.13;;;4.78;;
16101;SDS011;56411;52.964;10.540;2023-06-01T09:44:32;12.63;;;4.75;;
16101;SDS011;56411;52.964;10.540;2023-06-01T09:47:00;12.23;;;4.13;;
16101;SDS011;56411;52.964;10.540;2023-06-01T09:49:29;13.15;;;4.38;;
16101;SDS011;56411;52.964;10.540;2023-06-01T09:52:10;13.73;;;4.63;;
16101;SDS011;56411;52.964;10.540;2023-06-01T09:54:40;11.18;;;4.57;;
16101;SDS011;56411;52.964;10.540;2023-06-01T09:57:10;10.02;;;4.05;;
16101;SDS011;56411;52.964;10.540;2023-06-01T09:59:38;11.40;;;4.30;;
16101;SDS011;56411;52.964;10.540;2023-06-01T10:02:07;10.02;;;3.90;;
16101;SDS011;56411;52.964;10.540;2023-06-01T10:04:39;12.05;;;4.22;;
16101;SDS011;56411;52.964;10.540;2023-06-01T10:07:06;12.82;;;4.20;;
16101;SDS011;56411;52.964;10.540;2023-06-01T10:09:36;13.15;;;4.22;;
16101;SDS011;56411;52.964;10.540;2023-06-01T10:12:07;14.15;;;4.80;;
16101;SDS011;56411;52.964;10.540;2023-06-01T10:14:36;12.88;;;4.57;;
16101;SDS011;56411;52.964;10.540;2023-06-01T10:17:04;11.90;;;4.55;;
16101;SDS011;56411;52.964;10.540;2023-06-01T10:19:32;11.73;;;4.15;;
16101;SDS011;56411;52.964;10.540;2023-06-01T10:22:01;12.55;;;4.38;;
16101;SDS011;56411;52.964;10.540;2023-06-01T10:24:29;13.43;;;4.47;;
16101;SDS011;56411;52.964;10.540;2023-06-01T10:26:59;14.32;;;4.63;;
16101;SDS011;56411;52.964;10.540;2023-06-01T10:29:33;12.32;;;4.40;;
16101;SDS011;56411;52.964;10.540;2023-06-01T10:32:00;12.45;;;4.25;;
16101;SDS011;56411;52.964;10.540;2023-06-01T10:34:37;11.07;;;4.32;;
16101;SDS011;56411;52.964;10.540;2023-06-01T10:37:11;12.52;;;4.72;;
16101;SDS011;56411;52.964;10.540;2023-06-01T10:39:42;11.38;;;4.13;;
16101;SDS011;56411;52.964;10.540;2023-06-01T10:45:06;14.35;;;3.80;;
16101;SDS011;56411;52.964;10.540;2023-06-01T10:47:43;10.07;;;3.67;;
16101;SDS011;56411;52.964;10.540;2023-06-01T10:50:16;14.02;;;4.40;;
16101;SDS011;56411;52.964;10.540;2023-06-01T10:52:43;11.40;;;3.70;;
16101;SDS011;56411;52.964;10.540;2023-06-01T10:55:24;11.73;;;4.20;;
16101;SDS011;56411;52.964;10.540;2023-06-01T11:00:48;10.82;;;3.80;;
16101;SDS011;56411;52.964;10.540;2023-06-01T11:03:17;11.60;;;4.38;;
16101;SDS011;56411;52.964;10.540;2023-06-01T11:06:23;11.55;;;3.97;;
16101;SDS011;56411;52.964;10.540;2023-06-01T11:08:53;11.00;;;3.75;;
16101;SDS011;56411;52.964;10.540;2023-06-01T11:11:21;10.65;;;4.00;;
16101;SDS011;56411;52.964;10.540;2023-06-01T11:14:05;12.32;;;4.30;;
16101;SDS011;56411;52.964;10.540;2023-06-01T11:16:35;10.77;;;4.10;;
16101;SDS011;56411;52.964;10.540;2023-06-01T11:19:03;11.18;;;3.92;;
16101;SDS011;56411;52.964;10.540;2023-06-01T11:21:35;10.60;;;4.15;;
16101;SDS011;56411;52.964;10.540;2023-06-01T11:24:06;11.55;;;4.30;;
16101;SDS011;56411;52.964;10.540;2023-06-01T11:26:36;12.18;;;4.07;;
16101;SDS011;56411;52.964;10.540;2023-06-01T11:29:11;10.70;;;3.90;;
16101;SDS011;56411;52.964;10.540;2023-06-01T11:31:42;12.57;;;4.57;;
16101;SDS011;56411;52.964;10.540;2023-06-01T11:34:12;15.57;;;4.15;;
16101;SDS011;56411;52.964;10.540;2023-06-01T11:36:44;13.75;;;4.80;;
16101;SDS011;56411;52.964;10.540;2023-06-01T11:39:20;11.80;;;4.10;;
16101;SDS011;56411;52.964;10.540;2023-06-01T11:41:50;9.38;;;3.75;;
16101;SDS011;56411;52.964;10.540;2023-06-01T11:44:19;16.60;;;4.53;;
16101;SDS011;56411;52.964;10.540;2023-06-01T11:46:51;12.18;;;4.13;;
16101;SDS011;56411;52.964;10.540;2023-06-01T11:49:18;12.30;;;5.28;;
16101;SDS011;56411;52.964;10.540;2023-06-01T11:51:46;13.10;;;4.55;;
16101;SDS011;56411;52.964;10.540;2023-06-01T11:54:15;13.40;;;4.53;;
16101;SDS011;56411;52.964;10.540;2023-06-01T11:56:47;11.77;;;4.10;;
16101;SDS011;56411;52.964;10.540;2023-06-01T11:59:14;11.85;;;3.88;;
16101;SDS011;56411;52.964;10.540;2023-06-01T12:01:41;15.20;;;3.95;;
16101;SDS011;56411;52.964;10.540;2023-06-01T12:04:13;11.40;;;4.28;;
16101;SDS011;56411;52.964;10.540;2023-06-01T12:06:40;9.52;;;4.30;;
16101;SDS011;56411;52.964;10.540;2023-06-01T12:09:08;14.30;;;4.65;;
16101;SDS011;56411;52.964;10.540;2023-06-01T12:11:36;12.73;;;4.18;;
16101;SDS011;56411;52.964;10.540;2023-06-01T12:14:04;13.82;;;4.15;;
16101;SDS011;56411;52.964;10.540;2023-06-01T12:19:19;12.30;;;4.20;;
16101;SDS011;56411;52.964;10.540;2023-06-01T12:21:47;11.18;;;3.97;;
16101;SDS011;56411;52.964;10.540;2023-06-01T12:24:16;12.05;;;4.07;;
16101;SDS011;56411;52.964;10.540;2023-06-01T12:26:43;17.77;;;4.10;;
16101;SDS011;56411;52.964;10.540;2023-06-01T12:29:10;11.13;;;4.10;;
16101;SDS011;56411;52.964;10.540;2023-06-01T12:31:37;11.77;;;3.95;;
16101;SDS011;56411;52.964;10.540;2023-06-01T12:34:14;12.77;;;3.88;;
16101;SDS011;56411;52.964;10.540;2023-06-01T12:36:44;9.63;;;3.42;;
16101;SDS011;56411;52.964;10.540;2023-06-01T12:39:11;10.68;;;3.80;;
16101;SDS011;56411;52.964;10.540;2023-06-01T12:41:46;15.88;;;3.78;;
16101;SDS011;56411;52.964;10.540;2023-06-01T12:44:18;9.20;;;3.22;;
16101;SDS011;56411;52.964;10.540;2023-06-01T12:46:46;12.68;;;3.90;;
16101;SDS011;56411;52.964;10.540;2023-06-01T12:49:14;11.60;;;3.70;;
16101;SDS011;56411;52.964;10.540;2023-06-01T12:51:44;10.57;;;3.70;;
16101;SDS011;56411;52.964;10.540;2023-06-01T12:54:11;10.35;;;3.58;;
16101;SDS011;56411;52.964;10.540;2023-06-01T12:56:39;9.38;;;3.47;;
16101;SDS011;56411;52.964;10.540;2023-06-01T12:59:08;9.20;;;3.28;;
16101;SDS011;56411;52.964;10.540;2023-06-01T13:01:35;9.30;;;3.38;;
16101;SDS011;56411;52.964;10.540;2023-06-01T13:04:02;9.00;;;3.65;;
16101;SDS011;56411;52.964;10.540;2023-06-01T13:06:29;8.52;;;3.63;;
16101;SDS011;56411;52.964;10.540;2023-06-01T13:08:58;8.63;;;3.25;;
16101;SDS011;56411;52.964;10.540;2023-06-01T13:11:24;8.77;;;3.55;;
16101;SDS011;56411;52.964;10.540;2023-06-01T13:13:52;10.88;;;3.53;;
16101;SDS011;56411;52.964;10.540;2023-06-01T13:16:20;10.10;;;3.55;;
16101;SDS011;56411;52.964;10.540;2023-06-01T13:18:47;8.68;;;3.30;;
16101;SDS011;56411;52.964;10.540;2023-06-01T13:21:16;10.40;;;3.58;;
16101;SDS011;56411;52.964;10.540;2023-06-01T13:23:43;10.57;;;3.65;;
16101;SDS011;56411;52.964;10.540;2023-06-01T13:26:11;10.45;;;3.67;;
16101;SDS011;56411;52.964;10.540;2023-06-01T13:28:39;11.35;;;3.92;;
16101;SDS011;56411;52.964;10.540;2023-06-01T13:31:06;10.55;;;3.35;;
16101;SDS011;56411;52.964;10.540;2023-06-01T13:33:34;9.05;;;3.70;;
16101;SDS011;56411;52.964;10.540;2023-06-01T13:36:01;10.70;;;3.70;;
16101;SDS011;56411;52.964;10.540;2023-06-01T13:38:28;9.52;;;3.40;;
16101;SDS011;56411;52.964;10.540;2023-06-01T13:40:56;13.10;;;4.00;;
16101;SDS011;56411;52.964;10.540;2023-06-01T13:43:24;9.77;;;3.83;;
16101;SDS011;56411;52.964;10.540;2023-06-01T13:45:51;9.95;;;4.00;;
16101;SDS011;56411;52.964;10.540;2023-06-01T13:48:18;14.43;;;3.88;;
16101;SDS011;56411;52.964;10.540;2023-06-01T13:50:45;9.52;;;3.90;;
16101;SDS011;56411;52.964;10.540;2023-06-01T13:53:12;10.15;;;3.90;;
16101;SDS011;56411;52.964;10.540;2023-06-01T13:55:39;11.95;;;3.78;;
16101;SDS011;56411;52.964;10.540;2023-06-01T13:58:06;10.75;;;3.92;;
16101;SDS011;56411;52.964;10.540;2023-06-01T14:00:34;11.60;;;3.83;;
16101;SDS011;56411;52.964;10.540;2023-06-01T14:03:01;11.25;;;3.53;;
16101;SDS011;56411;52.964;10.540;2023-06-01T14:05:28;8.77;;;3.60;;
16101;SDS011;56411;52.964;10.540;2023-06-01T14:07:55;9.13;;;3.60;;
16101;SDS011;56411;52.964;10.540;2023-06-01T14:10:22;8.77;;;3.35;;
16101;SDS011;56411;52.964;10.540;2023-06-01T14:12:49;9.90;;;3.40;;
16101;SDS011;56411;52.964;10.540;2023-06-01T14:15:16;9.02;;;2.90;;
16101;SDS011;56411;52.964;10.540;2023-06-01T14:17:45;8.60;;;3.42;;
16101;SDS011;56411;52.964;10.540;2023-06-01T14:20:12;10.93;;;3.78;;
16101;SDS011;56411;52.964;10.540;2023-06-01T14:22:39;8.32;;;3.03;;
16101;SDS011;56411;52.964;10.540;2023-06-01T14:25:07;10.40;;;3.30;;
16101;SDS011;56411;52.964;10.540;2023-06-01T14:27:34;10.63;;;3.30;;
16101;SDS011;56411;52.964;10.540;2023-06-01T14:30:02;8.90;;;3.58;;
16101;SDS011;56411;52.964;10.540;2023-06-01T14:32:30;12.77;;;4.10;;
16101;SDS011;56411;52.964;10.540;2023-06-01T14:34:58;10.65;;;3.75;;
16101;SDS011;56411;52.964;10.540;2023-06-01T14:37:25;10.10;;;3.35;;
16101;SDS011;56411;52.964;10.540;2023-06-01T14:39:52;10.30;;;3.75;;
16101;SDS011;56411;52.964;10.540;2023-06-01T14:42:22;8.68;;;3.50;;
16101;SDS011;56411;52.964;10.540;2023-06-01T14:44:49;10.00;;;3.25;;